createdAt,value
2023-03-23T16:00:20.853Z,14.84
2023-03-23T16:03:08.462Z,14.53
2023-03-23T16:15:11.191Z,14.43
2023-03-23T16:17:44.215Z,14.14
2023-03-23T16:20:12.898Z,14.08
2023-03-23T16:22:39.336Z,13.87
2023-03-23T16:25:11.240Z,13.56
2023-03-23T16:27:40.807Z,13.74
2023-03-23T16:30:33.708Z,13.30
2023-03-23T16:33:00.348Z,13.39
2023-03-23T16:35:26.826Z,13.60
2023-03-23T16:38:07.111Z,13.27
2023-03-23T16:40:35.072Z,13.22
2023-03-23T16:43:01.584Z,13.19
2023-03-23T16:45:37.371Z,13.13
2023-03-23T16:48:04.688Z,13.27
2023-03-23T16:50:31.648Z,13.18
2023-03-23T16:52:59.041Z,13.12
2023-03-23T16:55:27.066Z,12.99
2023-03-23T16:58:05.316Z,12.73
2023-03-23T17:00:38.763Z,12.86
2023-03-23T17:03:05.936Z,12.92
2023-03-23T17:05:32.668Z,12.88
2023-03-23T17:07:59.056Z,12.65
2023-03-23T17:10:27.409Z,12.56
2023-03-23T17:12:54.735Z,12.53
2023-03-23T17:15:21.238Z,12.77
2023-03-23T17:17:47.702Z,12.86
2023-03-23T17:20:14.061Z,12.73
2023-03-23T17:25:08.457Z,12.71
2023-03-23T17:27:35.786Z,12.65
2023-03-23T17:30:02.862Z,12.74
2023-03-23T17:32:29.315Z,12.66
2023-03-23T17:34:55.716Z,12.65
2023-03-23T17:37:22.138Z,12.55
2023-03-23T17:39:48.680Z,12.51
2023-03-23T17:42:15.421Z,12.61
2023-03-23T17:44:42.008Z,12.51
2023-03-23T17:47:11.680Z,12.26
2023-03-23T17:49:38.288Z,12.21
2023-03-23T17:52:04.842Z,12.21
2023-03-23T17:54:31.252Z,12.18
2023-03-23T17:56:58.698Z,12.16
2023-03-23T17:59:26.053Z,12.08
2023-03-23T18:01:53.518Z,12.08
2023-03-23T18:04:20.260Z,12.04
2023-03-23T18:06:47.211Z,12.18
2023-03-23T18:09:16.256Z,12.18
2023-03-23T18:11:45.875Z,12.14
2023-03-23T18:17:38.055Z,12.16
2023-03-23T18:20:05.312Z,12.15
2023-03-23T18:22:31.839Z,12.20
2023-03-23T18:24:58.486Z,12.11
2023-03-23T18:27:24.941Z,12.15
2023-03-23T18:29:51.399Z,12.09
2023-03-23T18:32:19.792Z,12.12
2023-03-23T18:34:46.972Z,12.14
2023-03-23T18:37:13.661Z,12.14
2023-03-23T18:39:40.196Z,12.09
2023-03-23T18:42:06.850Z,12.12
2023-03-23T18:44:33.305Z,12.14
2023-03-23T18:46:59.759Z,11.99
2023-03-23T19:07:18.068Z,11.83
2023-03-23T19:12:51.807Z,11.83
2023-03-23T19:15:18.692Z,11.84
2023-03-23T19:17:59.222Z,11.76
2023-03-23T19:21:06.429Z,11.82
2023-03-23T19:23:44.937Z,11.78
2023-03-23T19:26:19.513Z,11.67
2023-03-23T19:29:25.501Z,11.80
2023-03-23T19:31:53.819Z,11.70
2023-03-23T19:34:43.020Z,11.80
2023-03-23T19:37:27.430Z,11.78
2023-03-23T19:40:35.647Z,11.81
2023-03-23T19:43:09.038Z,11.80
2023-03-23T19:46:02.992Z,11.69
2023-03-23T19:48:51.102Z,11.75
2023-03-23T19:51:52.538Z,11.71
2023-03-23T19:54:44.465Z,11.78
2023-03-23T19:57:38.197Z,11.73
2023-03-23T20:00:24.485Z,11.79
2023-03-23T20:03:28.517Z,11.75
2023-03-23T20:06:20.637Z,11.80
2023-03-23T20:09:06.230Z,11.74
2023-03-23T20:11:41.497Z,11.84
2023-03-23T20:14:53.122Z,11.84
2023-03-23T21:30:06.852Z,11.20
2023-03-23T21:32:33.545Z,11.32
2023-03-23T21:35:12.538Z,11.40
2023-03-23T21:37:39.369Z,11.37
2023-03-23T21:40:07.154Z,11.39
2023-03-23T21:42:51.795Z,11.38
2023-03-23T21:45:36.381Z,11.27
2023-03-23T21:48:02.851Z,11.16
2023-03-23T21:54:06.545Z,10.92
2023-03-23T21:56:33.003Z,10.91
2023-03-23T21:59:01.280Z,10.88
2023-03-23T22:01:30.189Z,10.82
2023-03-23T22:03:57.858Z,10.67
2023-03-23T22:06:26.840Z,10.66
2023-03-23T22:08:53.784Z,10.58
2023-03-23T22:11:21.722Z,10.59
2023-03-23T22:20:47.241Z,10.41
2023-03-23T22:23:13.650Z,10.45
2023-03-23T22:25:45.968Z,10.41
2023-03-23T22:28:12.452Z,10.33
2023-03-23T22:30:38.902Z,10.31
2023-03-23T22:33:05.390Z,10.27
2023-03-23T22:35:33.826Z,10.27
2023-03-23T22:38:02.783Z,10.10
2023-03-23T22:40:30.245Z,10.10
2023-03-23T22:42:56.676Z,10.10
2023-03-23T22:45:27.345Z,10.07
2023-03-23T22:47:53.999Z,10.02
2023-03-23T22:50:21.577Z,9.91
2023-03-23T22:52:48.201Z,9.93
2023-03-23T22:55:14.611Z,9.86
2023-03-23T22:57:41.163Z,9.85
2023-03-23T23:00:08.288Z,9.86
2023-03-23T23:02:36.537Z,9.87
2023-03-23T23:07:43.365Z,9.79
2023-03-23T23:10:09.888Z,9.78
2023-03-23T23:12:36.497Z,9.78
2023-03-23T23:15:04.456Z,9.77
2023-03-23T23:17:34.769Z,9.77
2023-03-23T23:20:13.777Z,9.68
2023-03-23T23:23:00.196Z,9.65
2023-03-23T23:25:53.125Z,9.77
2023-03-23T23:28:24.390Z,9.69
2023-03-23T23:31:10.552Z,9.68
2023-03-23T23:34:00.744Z,9.64
2023-03-23T23:36:52.602Z,9.61
2023-03-23T23:39:31.576Z,9.50
2023-03-23T23:41:58.163Z,9.54
2023-03-23T23:44:27.836Z,9.54
2023-03-23T23:46:57.458Z,9.55
2023-03-23T23:49:28.768Z,9.67
2023-03-23T23:51:56.417Z,9.69
2023-03-23T23:54:22.930Z,9.65
2023-03-23T23:56:54.877Z,9.62
2023-03-23T23:59:39.011Z,9.53
